AXM6273 WBKW-WBKK
Flight info
| Callsign | AXM6273 |
|---|---|
| Flight time | 0h 34m |
| Altitude | 24000 |
| Route | AKDEM W425 MAKSU MAKSU2A |
| Aircraft | A320/M-SDE3FGHIRWY/LB1 |
Departure
| Time | 2026-05-06 10:19 |
|---|---|
| Airport | Tawau Airport (WBKW) |
Arrival
| Time | 2026-05-06 10:54 |
|---|---|
| Airport | Kota Kinabalu International Airport (WBKK) |
| Time | Latitude | Longitude | Altitude | Speed | Heading |
|---|---|---|---|---|---|
| 2026-05-06 09:36 | 4.31309 | 118.11480 | 48 ft | 0 kts | 328° |
| 2026-05-06 09:43 | 4.31308 | 118.11480 | 54 ft | 0 kts | 328° |
| 2026-05-06 10:10 | 4.31306 | 118.11482 | 53 ft | 3 kts | 327° |
| 2026-05-06 10:10 | 4.31283 | 118.11497 | 54 ft | 4 kts | 321° |
| 2026-05-06 10:10 | 4.31264 | 118.11515 | 52 ft | 4 kts | 306° |
| 2026-05-06 10:10 | 4.31253 | 118.11537 | 52 ft | 4 kts | 261° |
| 2026-05-06 10:11 | 4.31257 | 118.11549 | 54 ft | 1 kts | 238° |
| 2026-05-06 10:11 | 4.31258 | 118.11550 | 54 ft | 0 kts | 238° |
| 2026-05-06 10:15 | 4.31257 | 118.11548 | 54 ft | 1 kts | 238° |
| 2026-05-06 10:15 | 4.31252 | 118.11541 | 54 ft | 1 kts | 238° |
| 2026-05-06 10:15 | 4.31239 | 118.11520 | 54 ft | 6 kts | 238° |
| 2026-05-06 10:15 | 4.31206 | 118.11495 | 51 ft | 9 kts | 192° |
| 2026-05-06 10:16 | 4.31118 | 118.11541 | 52 ft | 16 kts | 146° |
| 2026-05-06 10:16 | 4.31017 | 118.11604 | 53 ft | 18 kts | 165° |
| 2026-05-06 10:16 | 4.30927 | 118.11534 | 51 ft | 18 kts | 239° |
| 2026-05-06 10:16 | 4.30857 | 118.11417 | 53 ft | 21 kts | 238° |
| 2026-05-06 10:17 | 4.30781 | 118.11289 | 53 ft | 17 kts | 251° |
| 2026-05-06 10:17 | 4.30763 | 118.11176 | 51 ft | 16 kts | 230° |
| 2026-05-06 10:17 | 4.30720 | 118.11213 | 53 ft | 11 kts | 47° |
| 2026-05-06 10:17 | 4.30766 | 118.11270 | 49 ft | 10 kts | 58° |
| 2026-05-06 10:18 | 4.30776 | 118.11287 | 53 ft | 0 kts | 59° |
| 2026-05-06 10:19 | 4.30878 | 118.11457 | 55 ft | 69 kts | 58° |
| 2026-05-06 10:19 | 4.31260 | 118.12074 | 55 ft | 137 kts | 58° |
| 2026-05-06 10:19 | 4.31843 | 118.13027 | 214 ft | 176 kts | 59° |
| 2026-05-06 10:19 | 4.32511 | 118.14147 | 674 ft | 198 kts | 59° |
| 2026-05-06 10:20 | 4.33286 | 118.15334 | 1414 ft | 205 kts | 47° |
| 2026-05-06 10:20 | 4.34548 | 118.15951 | 2231 ft | 210 kts | 2° |
| 2026-05-06 10:20 | 4.35968 | 118.15630 | 3087 ft | 212 kts | 330° |
| 2026-05-06 10:20 | 4.37059 | 118.14622 | 3665 ft | 229 kts | 307° |
| 2026-05-06 10:21 | 4.38051 | 118.13194 | 3662 ft | 264 kts | 303° |
| 2026-05-06 10:21 | 4.39072 | 118.11629 | 3670 ft | 270 kts | 303° |
| 2026-05-06 10:21 | 4.40102 | 118.10029 | 4026 ft | 276 kts | 303° |
| 2026-05-06 10:21 | 4.41141 | 118.08418 | 5045 ft | 276 kts | 303° |
| 2026-05-06 10:22 | 4.42200 | 118.06794 | 5988 ft | 280 kts | 303° |
| 2026-05-06 10:22 | 4.43278 | 118.05154 | 6888 ft | 284 kts | 303° |
| 2026-05-06 10:22 | 4.44376 | 118.03494 | 7748 ft | 288 kts | 303° |
| 2026-05-06 10:22 | 4.45489 | 118.01815 | 8558 ft | 292 kts | 304° |
| 2026-05-06 10:23 | 4.46623 | 118.00105 | 9379 ft | 297 kts | 304° |
| 2026-05-06 10:23 | 4.47777 | 117.98369 | 10148 ft | 301 kts | 304° |
| 2026-05-06 10:23 | 4.48976 | 117.96566 | 10483 ft | 323 kts | 304° |
| 2026-05-06 10:23 | 4.50282 | 117.94604 | 10740 ft | 344 kts | 304° |
| 2026-05-06 10:24 | 4.51626 | 117.92581 | 11329 ft | 352 kts | 304° |
| 2026-05-06 10:24 | 4.52995 | 117.90525 | 12020 ft | 357 kts | 304° |
| 2026-05-06 10:24 | 4.54378 | 117.88449 | 12721 ft | 360 kts | 304° |
| 2026-05-06 10:24 | 4.55777 | 117.86347 | 13406 ft | 364 kts | 304° |
| 2026-05-06 10:25 | 4.57186 | 117.84225 | 14053 ft | 369 kts | 304° |
| 2026-05-06 10:25 | 4.58617 | 117.82074 | 14701 ft | 372 kts | 304° |
| 2026-05-06 10:25 | 4.59912 | 117.79808 | 15319 ft | 377 kts | 292° |
| 2026-05-06 10:25 | 4.60905 | 117.77366 | 15898 ft | 381 kts | 296° |
| 2026-05-06 10:26 | 4.62197 | 117.75048 | 16490 ft | 384 kts | 305° |
| 2026-05-06 10:26 | 4.63752 | 117.72855 | 17062 ft | 387 kts | 306° |
| 2026-05-06 10:26 | 4.64793 | 117.71398 | 17438 ft | 389 kts | 306° |
| 2026-05-06 10:26 | 4.66901 | 117.68458 | 18160 ft | 394 kts | 306° |
| 2026-05-06 10:27 | 4.68511 | 117.66211 | 18684 ft | 398 kts | 306° |
| 2026-05-06 10:27 | 4.69599 | 117.64691 | 19043 ft | 400 kts | 306° |
| 2026-05-06 10:27 | 4.71233 | 117.62410 | 19592 ft | 403 kts | 306° |
| 2026-05-06 10:27 | 4.72880 | 117.60115 | 20106 ft | 407 kts | 306° |
| 2026-05-06 10:28 | 4.74539 | 117.57802 | 20631 ft | 410 kts | 306° |
| 2026-05-06 10:28 | 4.76204 | 117.55476 | 21142 ft | 413 kts | 306° |
| 2026-05-06 10:28 | 4.77886 | 117.53128 | 21645 ft | 416 kts | 306° |
| 2026-05-06 10:28 | 4.79596 | 117.50788 | 22113 ft | 418 kts | 307° |
| 2026-05-06 10:29 | 4.81344 | 117.48439 | 22580 ft | 421 kts | 307° |
| 2026-05-06 10:29 | 4.83115 | 117.46080 | 23028 ft | 424 kts | 307° |
| 2026-05-06 10:29 | 4.84894 | 117.43715 | 23448 ft | 427 kts | 307° |
| 2026-05-06 10:29 | 4.86686 | 117.41331 | 23767 ft | 429 kts | 307° |
| 2026-05-06 10:30 | 4.88482 | 117.38937 | 23841 ft | 429 kts | 307° |
| 2026-05-06 10:30 | 4.90274 | 117.36541 | 23851 ft | 429 kts | 307° |
| 2026-05-06 10:30 | 4.92060 | 117.34142 | 23850 ft | 429 kts | 307° |
| 2026-05-06 10:30 | 4.93843 | 117.31745 | 23851 ft | 429 kts | 307° |
| 2026-05-06 10:31 | 4.95628 | 117.29343 | 23851 ft | 429 kts | 307° |
| 2026-05-06 10:31 | 4.97416 | 117.26942 | 23850 ft | 429 kts | 307° |
| 2026-05-06 10:31 | 4.99201 | 117.24544 | 23849 ft | 429 kts | 307° |
| 2026-05-06 10:31 | 5.00983 | 117.22149 | 23843 ft | 429 kts | 307° |
| 2026-05-06 10:32 | 5.02767 | 117.19754 | 23841 ft | 429 kts | 307° |
| 2026-05-06 10:32 | 5.04557 | 117.17350 | 23841 ft | 429 kts | 307° |
| 2026-05-06 10:32 | 5.06343 | 117.14952 | 23841 ft | 429 kts | 307° |
| 2026-05-06 10:32 | 5.08126 | 117.12560 | 23841 ft | 429 kts | 307° |
| 2026-05-06 10:33 | 5.09905 | 117.10172 | 23841 ft | 429 kts | 307° |
| 2026-05-06 10:33 | 5.11689 | 117.07774 | 23842 ft | 429 kts | 307° |
| 2026-05-06 10:33 | 5.13475 | 117.05373 | 23841 ft | 429 kts | 307° |
| 2026-05-06 10:33 | 5.15257 | 117.02977 | 23841 ft | 429 kts | 307° |
| 2026-05-06 10:34 | 5.17045 | 117.00574 | 23840 ft | 429 kts | 307° |
| 2026-05-06 10:34 | 5.18829 | 116.98179 | 23841 ft | 429 kts | 307° |
| 2026-05-06 10:34 | 5.20615 | 116.95781 | 23841 ft | 429 kts | 307° |
| 2026-05-06 10:34 | 5.22403 | 116.93381 | 23833 ft | 429 kts | 307° |
| 2026-05-06 10:35 | 5.24186 | 116.90987 | 23831 ft | 429 kts | 307° |
| 2026-05-06 10:35 | 5.25968 | 116.88589 | 23832 ft | 429 kts | 307° |
| 2026-05-06 10:35 | 5.27751 | 116.86188 | 23830 ft | 429 kts | 307° |
| 2026-05-06 10:35 | 5.29534 | 116.83789 | 23831 ft | 429 kts | 307° |
| 2026-05-06 10:36 | 5.31312 | 116.81399 | 23831 ft | 429 kts | 307° |
| 2026-05-06 10:36 | 5.33096 | 116.78999 | 23831 ft | 429 kts | 307° |
| 2026-05-06 10:36 | 5.34882 | 116.76593 | 23832 ft | 429 kts | 307° |
| 2026-05-06 10:36 | 5.36662 | 116.74192 | 23831 ft | 429 kts | 307° |
| 2026-05-06 10:37 | 5.38436 | 116.71801 | 23741 ft | 425 kts | 307° |
| 2026-05-06 10:37 | 5.40184 | 116.69448 | 23458 ft | 416 kts | 307° |
| 2026-05-06 10:37 | 5.41935 | 116.67093 | 22384 ft | 425 kts | 307° |
| 2026-05-06 10:37 | 5.43707 | 116.64712 | 21740 ft | 424 kts | 307° |
| 2026-05-06 10:38 | 5.45462 | 116.62358 | 21232 ft | 419 kts | 307° |
| 2026-05-06 10:38 | 5.47194 | 116.60032 | 20692 ft | 415 kts | 307° |
| 2026-05-06 10:38 | 5.49054 | 116.57831 | 20158 ft | 411 kts | 316° |
| 2026-05-06 10:38 | 5.51280 | 116.56057 | 19611 ft | 407 kts | 328° |
| 2026-05-06 10:39 | 5.53767 | 116.54740 | 19063 ft | 403 kts | 335° |
| 2026-05-06 10:39 | 5.56278 | 116.53518 | 18519 ft | 401 kts | 335° |
| 2026-05-06 10:39 | 5.58775 | 116.52300 | 17962 ft | 394 kts | 335° |
| 2026-05-06 10:39 | 5.61184 | 116.51122 | 17439 ft | 379 kts | 335° |
| 2026-05-06 10:40 | 5.63533 | 116.49974 | 16909 ft | 371 kts | 334° |
| 2026-05-06 10:40 | 5.65839 | 116.48848 | 16409 ft | 366 kts | 335° |
| 2026-05-06 10:40 | 5.68097 | 116.47745 | 15903 ft | 365 kts | 334° |
| 2026-05-06 10:40 | 5.70366 | 116.46632 | 15425 ft | 363 kts | 334° |
| 2026-05-06 10:41 | 5.72633 | 116.45520 | 14928 ft | 361 kts | 334° |
| 2026-05-06 10:41 | 5.74921 | 116.44399 | 14428 ft | 360 kts | 334° |
| 2026-05-06 10:41 | 5.77128 | 116.43316 | 13944 ft | 358 kts | 334° |
| 2026-05-06 10:41 | 5.79364 | 116.42218 | 13449 ft | 356 kts | 334° |
| 2026-05-06 10:42 | 5.81581 | 116.41132 | 12953 ft | 355 kts | 334° |
| 2026-05-06 10:42 | 5.83799 | 116.40046 | 12444 ft | 353 kts | 334° |
| 2026-05-06 10:42 | 5.85991 | 116.38973 | 11934 ft | 350 kts | 334° |
| 2026-05-06 10:42 | 5.88177 | 116.37904 | 11430 ft | 348 kts | 334° |
| 2026-05-06 10:43 | 5.90399 | 116.36972 | 10915 ft | 345 kts | 344° |
| 2026-05-06 10:43 | 5.92697 | 116.36421 | 10568 ft | 337 kts | 347° |
| 2026-05-06 10:43 | 5.94961 | 116.35897 | 10299 ft | 328 kts | 347° |
| 2026-05-06 10:44 | 5.99236 | 116.34890 | 9989 ft | 305 kts | 347° |
| 2026-05-06 10:44 | 6.01287 | 116.34403 | 9762 ft | 300 kts | 347° |
| 2026-05-06 10:44 | 6.03312 | 116.33924 | 9500 ft | 299 kts | 347° |
| 2026-05-06 10:44 | 6.05337 | 116.33448 | 9113 ft | 298 kts | 347° |
| 2026-05-06 10:45 | 6.07348 | 116.32973 | 8699 ft | 296 kts | 347° |
| 2026-05-06 10:45 | 6.09344 | 116.32505 | 8292 ft | 294 kts | 347° |
| 2026-05-06 10:45 | 6.11307 | 116.31951 | 7880 ft | 292 kts | 337° |
| 2026-05-06 10:45 | 6.13024 | 116.30882 | 7474 ft | 290 kts | 319° |
| 2026-05-06 10:46 | 6.14340 | 116.29333 | 6775 ft | 299 kts | 301° |
| 2026-05-06 10:46 | 6.15229 | 116.27399 | 5977 ft | 310 kts | 293° |
| 2026-05-06 10:46 | 6.16071 | 116.25389 | 5488 ft | 308 kts | 293° |
| 2026-05-06 10:46 | 6.16883 | 116.23453 | 5314 ft | 294 kts | 293° |
| 2026-05-06 10:47 | 6.17654 | 116.21628 | 5189 ft | 271 kts | 294° |
| 2026-05-06 10:47 | 6.18360 | 116.19962 | 5067 ft | 248 kts | 294° |
| 2026-05-06 10:47 | 6.19003 | 116.18409 | 4958 ft | 236 kts | 288° |
| 2026-05-06 10:47 | 6.19036 | 116.16825 | 4855 ft | 228 kts | 248° |
| 2026-05-06 10:48 | 6.18066 | 116.15603 | 4588 ft | 227 kts | 211° |
| 2026-05-06 10:48 | 6.16678 | 116.14860 | 4308 ft | 225 kts | 205° |
| 2026-05-06 10:48 | 6.15260 | 116.14205 | 4039 ft | 223 kts | 203° |
| 2026-05-06 10:48 | 6.13867 | 116.13582 | 3785 ft | 221 kts | 203° |
| 2026-05-06 10:49 | 6.12437 | 116.12994 | 3516 ft | 218 kts | 201° |
| 2026-05-06 10:49 | 6.11066 | 116.12441 | 3402 ft | 208 kts | 202° |
| 2026-05-06 10:49 | 6.09736 | 116.11886 | 3167 ft | 206 kts | 202° |
| 2026-05-06 10:49 | 6.08420 | 116.11330 | 2913 ft | 205 kts | 202° |
| 2026-05-06 10:50 | 6.07120 | 116.10781 | 2661 ft | 200 kts | 202° |
| 2026-05-06 10:50 | 6.05863 | 116.10250 | 2377 ft | 196 kts | 202° |
| 2026-05-06 10:50 | 6.04623 | 116.09726 | 2120 ft | 191 kts | 202° |
| 2026-05-06 10:50 | 6.03449 | 116.09230 | 1880 ft | 173 kts | 202° |
| 2026-05-06 10:51 | 6.02397 | 116.08785 | 1671 ft | 156 kts | 202° |
| 2026-05-06 10:51 | 6.01434 | 116.08378 | 1462 ft | 146 kts | 202° |
| 2026-05-06 10:51 | 6.00507 | 116.07986 | 1271 ft | 143 kts | 202° |
| 2026-05-06 10:51 | 5.99601 | 116.07604 | 1083 ft | 141 kts | 202° |
| 2026-05-06 10:52 | 5.98702 | 116.07224 | 897 ft | 140 kts | 201° |
| 2026-05-06 10:52 | 5.97810 | 116.06849 | 699 ft | 139 kts | 202° |
| 2026-05-06 10:52 | 5.96923 | 116.06463 | 512 ft | 139 kts | 202° |
| 2026-05-06 10:52 | 5.96035 | 116.06088 | 320 ft | 138 kts | 202° |
| 2026-05-06 10:53 | 5.95151 | 116.05719 | 156 ft | 137 kts | 202° |
| 2026-05-06 10:53 | 5.94279 | 116.05360 | 32 ft | 130 kts | 201° |
| 2026-05-06 10:53 | 5.93590 | 116.05061 | 29 ft | 83 kts | 203° |
| 2026-05-06 10:53 | 5.93165 | 116.04881 | 29 ft | 51 kts | 203° |
| 2026-05-06 10:54 | 5.92938 | 116.04785 | 29 ft | 31 kts | 199° |
| 2026-05-06 10:54 | 5.92762 | 116.04757 | 29 ft | 21 kts | 180° |
| 2026-05-06 10:54 | 5.92609 | 116.04765 | 29 ft | 23 kts | 171° |
| 2026-05-06 10:54 | 5.92450 | 116.04772 | 29 ft | 20 kts | 187° |
| 2026-05-06 10:55 | 5.92407 | 116.04869 | 29 ft | 18 kts | 59° |
| 2026-05-06 10:55 | 5.92520 | 116.04925 | 29 ft | 13 kts | 22° |
| 2026-05-06 10:55 | 5.92555 | 116.04954 | 29 ft | 5 kts | 87° |
| 2026-05-06 10:55 | 5.92544 | 116.04982 | 29 ft | 4 kts | 115° |
| 2026-05-06 10:56 | 5.92534 | 116.05004 | 29 ft | 0 kts | 114° |